CheckWX is a tool to help pilots better visualize weather data.  It is not intended as a substitute for an official pre-flight weather briefing.

19:58:03 UTC

EGJJ TAF
Jersey Airport
Saint Helier, Jersey
TAF EGJJ 251659Z 2518/2603 01005KT 9999 FEW012 SCT030 PROB30 TEMPO 2523/2603 BKN005

Jun-25@
18:00 UTC

Jun-25 @ 18:00 UTC

Jun-26@
03:00 UTC

Jun-26 @ 03:00 UTC

TAF EGJJ 251659Z 2518/2603 01005KT 9999 FEW012 SCT030
Wind
  • 010° at 5 KTS
Cloud Levels
  • Few at 1,200' AGL
  • Scattered at 3,000' AGL

Jun-25@
23:00 UTC

Jun-25 @ 23:00 UTC

Jun-26@
03:00 UTC

Jun-26 @ 03:00 UTC

PROB30 TEMPO 2523/2603 BKN005

Temporary - 30% Likelihood

Temporary - 30% Likelihood during this time.

Cloud Levels
  • Broken at 500' AGL